OPA Logo
 

ASOS: KRDM
At:2017.04.23 0656 UTC
Wind:330° @ 5KT
Viz: 10 mile(s)
Sky: clear
Temp: 45.0 F (7.2 C)
DewP: 33.1 F (0.6 C)
RH: 62%
Baro: 29.94 in.
ob: KRDM 230656Z AUTO 33005KT 10SM CLR 07/01 A2994 RMK AO2 SLP130 T00720006
Apache-SSL Logo

Valid HTML 4.01!

Central Oregon OPA Chapter

Chapter Officers 2006:

President
Gary E. Miller
109 NW Wilmington Ave.
Bend OR 97701
541 382-8588
gem@rellim.com

Vice President:
Open

Secretary/Treasurer:
Don Wilfong
210 SE Cessna Dr
Bend OR 97702
541 389-1456
dwnw@bendbroadband.com


Web page by: gem@rellim.com